Time;durP1;ratioP1;P1;durP2;ratioP2;P2;SDS_P1;SDS_P2;PMS_P1;PMS_P2;Temp;Humidity;BMP_temperature;BMP_pressure;BME280_temperature;BME280_humidity;BME280_pressure;Samples;Min_cycle;Max_cycle;Signal;HPM_P1;HPM_P2
2021/01/21 00:01:06;;;;;;;5.00;2.13;;;14.10;51.70;;;;;;4983518;28;20087;-67
2021/01/21 00:03:33;;;;;;;9.02;2.17;;;14.20;51.70;;;;;;4979178;28;20034;-67
2021/01/21 00:06:00;;;;;;;5.10;2.60;;;14.20;51.70;;;;;;4984420;28;20037;-67
2021/01/21 00:08:26;;;;;;;3.28;1.80;;;14.20;51.80;;;;;;4980028;28;20124;-67
2021/01/21 00:10:51;;;;;;;5.47;2.03;;;14.20;51.90;;;;;;4984762;28;20045;-67
2021/01/21 00:13:17;;;;;;;12.85;2.33;;;14.20;51.80;;;;;;4972260;28;20486;-67
2021/01/21 00:15:43;;;;;;;5.90;2.28;;;14.20;51.80;;;;;;4982932;28;21776;-66
2021/01/21 00:18:08;;;;;;;3.58;2.03;;;14.20;51.90;;;;;;4982058;28;20041;-67
2021/01/21 00:20:34;;;;;;;4.78;2.15;;;14.20;51.90;;;;;;4980592;28;20034;-67
2021/01/21 00:23:00;;;;;;;5.43;1.95;;;14.20;51.90;;;;;;4976838;28;20037;-67
2021/01/21 00:25:25;;;;;;;5.35;2.40;;;14.20;52.50;;;;;;4987806;28;20476;-67
2021/01/21 00:27:51;;;;;;;5.38;2.13;;;14.20;51.80;;;;;;4982192;28;20054;-67
2021/01/21 00:30:17;;;;;;;4.75;1.90;;;14.20;51.80;;;;;;4984308;28;20042;-67
2021/01/21 00:32:43;;;;;;;8.40;1.92;;;14.20;51.80;;;;;;4983106;28;21626;-67
2021/01/21 00:35:10;;;;;;;5.93;2.85;;;14.20;51.90;;;;;;4979659;28;20034;-66
2021/01/21 00:37:35;;;;;;;5.40;2.08;;;14.20;52.00;;;;;;4982951;28;20073;-67
2021/01/21 00:40:01;;;;;;;3.40;2.03;;;14.20;52.00;;;;;;4990370;28;20140;-67
2021/01/21 00:42:26;;;;;;;3.10;1.65;;;14.20;52.00;;;;;;4982767;28;20068;-67
2021/01/21 00:44:52;;;;;;;5.32;2.20;;;14.20;52.00;;;;;;4984830;28;20459;-67
2021/01/21 00:47:18;;;;;;;4.22;2.10;;;14.20;52.10;;;;;;4984280;28;20073;-67
2021/01/21 00:49:44;;;;;;;5.78;2.15;;;14.20;52.00;;;;;;4982344;28;20145;-67
2021/01/21 00:52:09;;;;;;;5.82;1.88;;;14.20;52.00;;;;;;4984003;28;20590;-68
2021/01/21 00:54:35;;;;;;;8.77;2.28;;;14.20;52.00;;;;;;4983352;28;20124;-67
2021/01/21 00:57:00;;;;;;;5.28;1.98;;;14.20;52.10;;;;;;4978596;28;20555;-67
2021/01/21 00:59:26;;;;;;;6.15;2.13;;;14.20;52.10;;;;;;4984379;28;20543;-67
2021/01/21 01:01:52;;;;;;;4.38;2.00;;;14.20;52.20;;;;;;4986899;28;20057;-67
2021/01/21 01:04:17;;;;;;;5.43;1.88;;;14.20;52.20;;;;;;4975140;28;20551;-67
2021/01/21 01:06:43;;;;;;;5.55;2.05;;;14.20;52.20;;;;;;4982692;28;20053;-67
2021/01/21 01:09:08;;;;;;;7.97;2.17;;;14.20;52.30;;;;;;4981306;28;20038;-67
2021/01/21 01:11:34;;;;;;;4.07;1.90;;;14.20;52.20;;;;;;4977469;28;20062;-68
2021/01/21 01:13:59;;;;;;;7.43;2.00;;;14.20;52.30;;;;;;4978504;28;20128;-68
2021/01/21 01:16:25;;;;;;;5.97;2.28;;;14.20;52.30;;;;;;4978044;28;20042;-67
2021/01/21 01:18:51;;;;;;;2.97;1.98;;;14.10;52.30;;;;;;4981425;28;20116;-67
2021/01/21 01:21:16;;;;;;;7.95;1.92;;;14.10;52.30;;;;;;4985691;28;20057;-67
2021/01/21 01:23:42;;;;;;;5.40;1.77;;;14.10;52.30;;;;;;4981867;28;20787;-67
2021/01/21 01:26:08;;;;;;;4.28;1.92;;;14.10;52.40;;;;;;4976491;28;20470;-67
2021/01/21 01:28:33;;;;;;;3.88;1.90;;;14.00;52.30;;;;;;4980701;28;20042;-68
2021/01/21 01:30:59;;;;;;;5.18;1.95;;;14.00;52.30;;;;;;4984620;28;20286;-67
2021/01/21 01:33:27;;;;;;;7.47;1.80;;;14.00;52.40;;;;;;4973446;28;20540;-68
2021/01/21 01:35:52;;;;;;;6.00;2.00;;;14.00;52.40;;;;;;4986800;28;20041;-67
2021/01/21 01:38:18;;;;;;;3.80;1.90;;;14.00;52.50;;;;;;4994174;28;20034;-67
2021/01/21 01:40:44;;;;;;;3.75;2.10;;;13.90;52.50;;;;;;4987354;28;20045;-67
2021/01/21 01:43:09;;;;;;;3.95;1.90;;;13.90;52.50;;;;;;4982005;28;21053;-67
2021/01/21 01:45:35;;;;;;;4.68;2.08;;;13.90;52.60;;;;;;4983199;28;20042;-67
2021/01/21 01:48:02;;;;;;;5.88;2.20;;;13.90;52.60;;;;;;4979902;28;20088;-67
2021/01/21 01:50:28;;;;;;;5.22;2.00;;;13.80;52.60;;;;;;4980929;28;20035;-67
2021/01/21 01:52:55;;;;;;;5.65;1.85;;;13.80;52.70;;;;;;4972526;28;20041;-67
2021/01/21 01:55:21;;;;;;;4.18;1.95;;;13.80;52.80;;;;;;4982236;28;20030;-67
2021/01/21 01:57:54;;;;;;;7.75;1.85;;;13.70;52.70;;;;;;4988120;28;20027;-67
2021/01/21 02:00:21;;;;;;;4.68;2.00;;;13.70;52.80;;;;;;4989145;28;20098;-67
2021/01/21 02:02:50;;;;;;;4.75;2.00;;;13.70;52.80;;;;;;4974272;28;20038;-67
2021/01/21 02:05:19;;;;;;;4.93;2.42;;;13.60;52.90;;;;;;4976428;28;20592;-67
2021/01/21 02:07:45;;;;;;;3.60;1.73;;;13.60;53.00;;;;;;4975472;28;20423;-67
2021/01/21 02:10:17;;;;;;;3.05;1.98;;;13.50;53.00;;;;;;4982297;28;20042;-67
2021/01/21 02:12:55;;;;;;;3.33;2.00;;;13.50;53.10;;;;;;4982916;28;20034;-67
2021/01/21 02:15:29;;;;;;;4.95;2.00;;;13.40;53.20;;;;;;4982467;28;20188;-67
2021/01/21 02:18:19;;;;;;;7.70;2.10;;;13.40;53.30;;;;;;4986618;28;20046;-67
2021/01/21 02:21:00;;;;;;;8.23;2.30;;;13.30;53.40;;;;;;4986914;28;20128;-67
2021/01/21 02:23:42;;;;;;;6.63;1.58;;;13.30;53.50;;;;;;4980811;28;20125;-67
2021/01/21 02:26:11;;;;;;;5.05;1.85;;;13.30;53.50;;;;;;4983559;28;20587;-67
2021/01/21 02:29:27;;;;;;;7.88;2.05;;;13.20;53.60;;;;;;4986072;28;20046;-67
2021/01/21 02:32:08;;;;;;;7.25;2.10;;;13.20;53.60;;;;;;4994985;28;20031;-67
2021/01/21 02:34:51;;;;;;;2.80;1.73;;;13.10;53.70;;;;;;4980784;28;20114;-67
2021/01/21 02:37:24;;;;;;;4.75;1.95;;;13.10;53.70;;;;;;4988581;28;20049;-67
2021/01/21 02:39:53;;;;;;;4.85;2.28;;;13.10;53.90;;;;;;4987197;28;20100;-67
2021/01/21 02:42:21;;;;;;;7.45;2.25;;;13.00;53.90;;;;;;4986637;28;20037;-67
2021/01/21 02:44:49;;;;;;;5.55;1.95;;;13.00;54.00;;;;;;4986744;28;20458;-67
2021/01/21 02:47:17;;;;;;;6.20;1.90;;;13.00;54.00;;;;;;4984653;28;20112;-67
2021/01/21 02:49:43;;;;;;;4.13;1.73;;;13.00;54.10;;;;;;4979601;28;20139;-67
2021/01/21 02:52:30;;;;;;;6.07;2.65;;;13.00;54.20;;;;;;4982504;28;20428;-67
2021/01/21 02:55:11;;;;;;;8.82;1.92;;;12.90;54.20;;;;;;4979306;28;20077;-67
2021/01/21 02:57:48;;;;;;;7.78;2.17;;;12.90;54.20;;;;;;4981743;28;20034;-67
2021/01/21 03:00:14;;;;;;;4.85;2.08;;;12.90;54.30;;;;;;4989472;28;20447;-67
2021/01/21 03:02:50;;;;;;;4.78;2.13;;;12.90;53.80;;;;;;4980549;28;23767;-67
2021/01/21 03:05:18;;;;;;;8.90;2.35;;;12.90;54.20;;;;;;4983963;28;20042;-67
2021/01/21 03:07:45;;;;;;;4.80;2.10;;;12.90;54.30;;;;;;4991174;28;20038;-67
2021/01/21 03:10:16;;;;;;;2.72;1.73;;;12.90;54.30;;;;;;4985488;28;21727;-68
2021/01/21 03:12:42;;;;;;;5.15;2.00;;;12.90;54.30;;;;;;4981015;28;20073;-67
2021/01/21 03:15:08;;;;;;;3.20;1.75;;;12.90;54.30;;;;;;4980213;28;20033;-67
2021/01/21 03:17:34;;;;;;;7.88;2.30;;;12.90;54.30;;;;;;4984317;28;20149;-67
2021/01/21 03:19:59;;;;;;;2.97;1.88;;;13.00;54.30;;;;;;4984894;28;20038;-67
2021/01/21 03:22:25;;;;;;;6.97;1.90;;;12.90;54.20;;;;;;4979615;28;20038;-67
2021/01/21 03:24:50;;;;;;;6.97;2.03;;;12.90;54.40;;;;;;4984439;28;20089;-67
2021/01/21 03:27:16;;;;;;;5.88;2.00;;;12.90;54.40;;;;;;4987085;28;20050;-67
2021/01/21 03:29:42;;;;;;;4.18;2.05;;;13.00;54.40;;;;;;4977695;28;20037;-67
2021/01/21 03:32:07;;;;;;;3.72;1.95;;;13.00;54.40;;;;;;4981505;28;20042;-67
2021/01/21 03:34:33;;;;;;;3.75;1.63;;;13.00;54.40;;;;;;4983058;28;20066;-67
2021/01/21 03:36:59;;;;;;;5.25;1.70;;;13.00;54.30;;;;;;4986744;28;20045;-67
2021/01/21 03:39:24;;;;;;;5.85;2.17;;;13.00;54.20;;;;;;4981649;28;20034;-67
2021/01/21 03:41:50;;;;;;;4.57;1.73;;;13.00;54.20;;;;;;4979341;28;20957;-67
2021/01/21 03:44:17;;;;;;;7.93;2.10;;;13.00;54.20;;;;;;4981065;28;20176;-67
2021/01/21 03:46:43;;;;;;;2.90;1.58;;;13.00;54.20;;;;;;4990248;28;21670;-67
2021/01/21 03:49:09;;;;;;;5.97;2.00;;;13.10;54.10;;;;;;4984473;28;20046;-67
2021/01/21 03:51:35;;;;;;;3.65;1.70;;;13.10;54.10;;;;;;4976279;28;20420;-67
2021/01/21 03:54:00;;;;;;;4.35;1.77;;;13.10;54.20;;;;;;4976929;28;20057;-67
2021/01/21 03:56:26;;;;;;;5.07;1.90;;;13.10;54.10;;;;;;4983108;28;20034;-67
2021/01/21 03:58:51;;;;;;;5.10;1.90;;;13.20;54.00;;;;;;4985346;28;20092;-67
2021/01/21 04:01:17;;;;;;;3.15;1.40;;;13.20;54.00;;;;;;4983821;28;20033;-67
2021/01/21 04:03:43;;;;;;;3.80;1.40;;;13.30;53.90;;;;;;4978906;28;20574;-67
2021/01/21 04:06:09;;;;;;;2.58;1.42;;;13.30;53.80;;;;;;4978508;28;20053;-68
2021/01/21 04:08:34;;;;;;;8.55;1.65;;;13.30;53.70;;;;;;4980488;28;20423;-67
2021/01/21 04:11:00;;;;;;;6.13;1.95;;;13.30;53.60;;;;;;4978874;28;20395;-67
2021/01/21 04:13:26;;;;;;;3.13;1.58;;;13.40;53.60;;;;;;4969410;28;20537;-67
2021/01/21 04:15:51;;;;;;;2.92;1.60;;;13.40;53.60;;;;;;4979797;28;20044;-67
2021/01/21 04:18:17;;;;;;;4.43;1.50;;;13.40;53.60;;;;;;4978836;28;20037;-67
2021/01/21 04:20:42;;;;;;;4.03;1.70;;;13.50;53.50;;;;;;4980509;28;20177;-67
2021/01/21 04:23:08;;;;;;;6.22;1.55;;;13.60;53.50;;;;;;4978400;28;20045;-67
2021/01/21 04:25:34;;;;;;;3.75;1.30;;;13.70;53.30;;;;;;4979855;28;20038;-67
2021/01/21 04:27:59;;;;;;;2.45;1.60;;;13.80;53.20;;;;;;4985736;28;20050;-67
2021/01/21 04:30:25;;;;;;;3.63;1.38;;;13.80;53.00;;;;;;4981624;28;20751;-67
2021/01/21 04:32:51;;;;;;;3.72;1.55;;;13.90;52.80;;;;;;4977831;28;20041;-67
2021/01/21 04:35:18;;;;;;;4.65;1.23;;;13.90;52.70;;;;;;4981669;28;20104;-67
2021/01/21 04:37:43;;;;;;;2.50;1.25;;;14.00;52.70;;;;;;4984431;28;20399;-67
2021/01/21 04:40:09;;;;;;;6.20;1.73;;;14.00;52.50;;;;;;4979479;28;20037;-68
2021/01/21 04:42:35;;;;;;;3.75;1.88;;;14.10;52.40;;;;;;4977298;28;20474;-67
2021/01/21 04:45:03;;;;;;;4.18;1.58;;;14.20;52.30;;;;;;4980397;28;20046;-67
2021/01/21 04:47:29;;;;;;;3.05;1.40;;;14.20;52.10;;;;;;4983225;28;20042;-67
2021/01/21 04:49:57;;;;;;;3.00;1.50;;;14.30;52.00;;;;;;4981531;28;20046;-67
2021/01/21 04:52:24;;;;;;;1.75;1.33;;;14.40;51.90;;;;;;4973275;28;20341;-67
2021/01/21 04:54:57;;;;;;;4.35;1.30;;;14.40;51.80;;;;;;4982883;28;20048;-67
2021/01/21 04:57:45;;;;;;;5.55;1.30;;;14.40;51.60;;;;;;4985225;28;20516;-67
2021/01/21 05:00:11;;;;;;;6.43;1.75;;;14.50;51.50;;;;;;4980801;28;20042;-67
2021/01/21 05:02:40;;;;;;;2.33;1.17;;;14.50;51.40;;;;;;4974438;28;20404;-67
2021/01/21 05:05:08;;;;;;;4.10;1.42;;;14.50;51.30;;;;;;4992571;28;20049;-67
2021/01/21 05:07:34;;;;;;;2.45;1.33;;;14.50;51.20;;;;;;4984278;28;20151;-67
2021/01/21 05:10:00;;;;;;;7.40;1.20;;;14.60;51.20;;;;;;4983002;28;20034;-67
2021/01/21 05:12:26;;;;;;;3.78;1.40;;;14.60;51.10;;;;;;4980345;28;20510;-67
2021/01/21 05:14:51;;;;;;;6.43;1.80;;;14.70;51.10;;;;;;4978248;28;20042;-67
2021/01/21 05:17:18;;;;;;;2.92;1.17;;;14.70;51.10;;;;;;4976661;28;20045;-67
2021/01/21 05:19:46;;;;;;;1.98;1.25;;;14.70;51.00;;;;;;4983167;28;20037;-67
2021/01/21 05:22:14;;;;;;;2.95;1.30;;;14.80;50.90;;;;;;4978388;28;20046;-67
2021/01/21 05:24:40;;;;;;;4.80;1.45;;;14.90;51.50;;;;;;4976856;28;20038;-67
2021/01/21 05:27:06;;;;;;;2.83;1.00;;;14.90;50.80;;;;;;4980035;28;20533;-67
2021/01/21 05:29:31;;;;;;;3.40;1.52;;;15.00;50.60;;;;;;4982087;28;20038;-67
2021/01/21 05:31:58;;;;;;;3.50;1.20;;;15.00;50.50;;;;;;4979759;28;20045;-68
2021/01/21 05:34:24;;;;;;;4.70;1.40;;;15.00;50.50;;;;;;4979852;28;20559;-67
2021/01/21 05:36:50;;;;;;;1.70;1.10;;;15.10;50.40;;;;;;4996340;28;20038;-67
2021/01/21 05:39:17;;;;;;;3.08;1.10;;;15.10;50.40;;;;;;4984129;28;20520;-71
2021/01/21 05:41:44;;;;;;;1.00;0.90;;;15.20;50.40;;;;;;4981983;28;20045;-69
2021/01/21 05:44:09;;;;;;;2.28;1.45;;;15.20;50.20;;;;;;4982153;28;20141;-68
2021/01/21 05:46:35;;;;;;;1.40;0.98;;;15.30;50.20;;;;;;4987411;28;20165;-68
2021/01/21 05:49:02;;;;;;;2.45;1.10;;;15.30;50.00;;;;;;4988359;28;20038;-68
2021/01/21 05:51:29;;;;;;;3.22;1.33;;;15.40;50.00;;;;;;4992108;28;20038;-68
2021/01/21 05:53:58;;;;;;;3.97;1.17;;;15.40;50.00;;;;;;4986606;28;20704;-68
2021/01/21 05:56:25;;;;;;;3.17;1.27;;;15.50;50.00;;;;;;4991628;28;20034;-68
2021/01/21 05:58:53;;;;;;;3.63;1.33;;;15.50;49.90;;;;;;4988690;28;20038;-68
2021/01/21 06:01:21;;;;;;;5.32;1.08;;;15.50;49.80;;;;;;4981232;28;20073;-68
2021/01/21 06:03:47;;;;;;;4.15;1.20;;;15.60;49.80;;;;;;4980506;28;20037;-68
2021/01/21 06:06:13;;;;;;;1.92;1.05;;;15.60;49.80;;;;;;4990478;28;20157;-67
2021/01/21 06:08:43;;;;;;;3.55;1.50;;;15.60;49.80;;;;;;4990621;28;20114;-68
2021/01/21 06:11:10;;;;;;;3.88;1.05;;;15.70;49.90;;;;;;4990145;28;20105;-68
2021/01/21 06:13:41;;;;;;;1.40;1.00;;;15.70;49.90;;;;;;4982124;28;20096;-68
2021/01/21 06:16:07;;;;;;;4.45;1.50;;;15.70;50.00;;;;;;4991577;28;20564;-68
2021/01/21 06:18:33;;;;;;;4.57;0.80;;;15.70;50.40;;;;;;4989205;28;20057;-66
2021/01/21 06:21:03;;;;;;;3.33;0.95;;;15.70;50.40;;;;;;4993365;28;20041;-66
2021/01/21 06:23:33;;;;;;;1.33;0.52;;;15.30;49.30;;;;;;4986684;28;20128;-66
2021/01/21 06:26:00;;;;;;;3.20;0.65;;;14.60;49.60;;;;;;4994218;28;20464;-73
2021/01/21 06:28:28;;;;;;;1.20;0.60;;;13.90;50.30;;;;;;4990401;28;20039;-67
2021/01/21 06:30:57;;;;;;;2.03;0.98;;;13.40;51.20;;;;;;4974321;28;20076;-66
2021/01/21 06:33:29;;;;;;;2.55;0.50;;;12.90;52.20;;;;;;4984885;28;20037;-66
2021/01/21 06:36:03;;;;;;;4.30;0.80;;;12.50;53.10;;;;;;4984763;28;20480;-66
2021/01/21 06:38:40;;;;;;;2.53;0.85;;;12.20;53.80;;;;;;4984478;28;20088;-66
2021/01/21 06:41:15;;;;;;;2.10;0.60;;;12.00;54.40;;;;;;4988281;28;20050;-66
2021/01/21 06:43:41;;;;;;;2.35;0.75;;;11.80;54.90;;;;;;4986248;28;20181;-66
2021/01/21 06:46:13;;;;;;;3.85;0.90;;;11.70;55.40;;;;;;4995610;28;20620;-66
2021/01/21 06:48:48;;;;;;;2.30;0.75;;;11.60;55.80;;;;;;4992531;28;20054;-66
2021/01/21 06:51:16;;;;;;;3.42;0.73;;;11.50;56.00;;;;;;4992388;28;20104;-66
2021/01/21 06:53:43;;;;;;;4.05;0.68;;;11.50;56.30;;;;;;4992330;28;20038;-66
2021/01/21 06:56:09;;;;;;;3.97;0.85;;;11.40;56.40;;;;;;4987965;28;20104;-66
2021/01/21 06:58:49;;;;;;;4.28;0.80;;;11.40;56.70;;;;;;4991788;28;20043;-66
2021/01/21 07:01:33;;;;;;;3.00;0.95;;;11.40;56.90;;;;;;4981727;28;20140;-66
2021/01/21 07:03:59;;;;;;;1.90;0.70;;;11.40;57.00;;;;;;4985950;28;20045;-66
2021/01/21 07:06:25;;;;;;;2.00;0.70;;;11.40;57.10;;;;;;4989800;28;20415;-65
2021/01/21 07:09:05;;;;;;;5.05;0.90;;;11.40;57.20;;;;;;4993986;28;20038;-65
2021/01/21 07:11:34;;;;;;;4.57;1.38;;;11.40;57.40;;;;;;4987483;28;20026;-66
2021/01/21 07:14:00;;;;;;;6.03;1.27;;;11.30;57.40;;;;;;4986647;28;20120;-66
2021/01/21 07:16:26;;;;;;;3.15;1.00;;;11.30;57.40;;;;;;4991284;28;20045;-66
2021/01/21 07:18:54;;;;;;;7.32;0.88;;;11.30;57.50;;;;;;4985219;28;20531;-66
2021/01/21 07:21:24;;;;;;;6.70;1.05;;;11.30;57.50;;;;;;4988872;28;20527;-65
2021/01/21 07:23:54;;;;;;;5.68;1.10;;;11.30;57.50;;;;;;4995288;28;20091;-66
2021/01/21 07:26:34;;;;;;;41.72;9.05;;;11.40;57.60;;;;;;4993652;28;20038;-66
2021/01/21 07:29:11;;;;;;;24.48;4.90;;;11.30;57.60;;;;;;4994060;28;20116;-66
2021/01/21 07:31:52;;;;;;;20.52;3.83;;;11.30;57.70;;;;;;4990198;28;20049;-66
2021/01/21 07:34:20;;;;;;;6.15;2.03;;;11.30;57.70;;;;;;4981762;28;20030;-66
2021/01/21 07:36:46;;;;;;;4.72;1.15;;;11.30;57.70;;;;;;4990594;28;20035;-66
2021/01/21 07:39:11;;;;;;;8.35;1.73;;;11.40;57.70;;;;;;4987006;28;20050;-66
2021/01/21 07:41:43;;;;;;;2.83;1.33;;;11.40;57.70;;;;;;4990337;28;20038;-66
2021/01/21 07:44:10;;;;;;;5.65;1.15;;;11.40;57.80;;;;;;4989979;28;20041;-66
2021/01/21 07:46:35;;;;;;;5.13;1.27;;;11.40;57.70;;;;;;4983672;28;20051;-66
2021/01/21 07:49:22;;;;;;;3.60;1.15;;;11.40;57.70;;;;;;4987286;28;20048;-66
2021/01/21 07:52:05;;;;;;;7.15;1.48;;;11.40;57.70;;;;;;4986155;28;20447;-66
2021/01/21 07:54:43;;;;;;;8.95;1.40;;;11.40;57.80;;;;;;4985346;28;20033;-66
2021/01/21 07:57:11;;;;;;;4.30;1.02;;;11.40;57.70;;;;;;4986991;28;20082;-66
2021/01/21 07:59:59;;;;;;;1.92;1.00;;;11.40;57.70;;;;;;4988190;28;20035;-66
2021/01/21 08:02:25;;;;;;;7.53;1.88;;;11.40;57.70;;;;;;4981950;28;20030;-66
2021/01/21 08:04:58;;;;;;;2.80;1.13;;;11.50;57.80;;;;;;4992300;28;20380;-66
2021/01/21 08:07:24;;;;;;;9.05;1.80;;;11.50;57.80;;;;;;4989332;28;20046;-66
2021/01/21 08:10:06;;;;;;;9.02;1.55;;;11.50;57.80;;;;;;4991107;28;20408;-66
2021/01/21 08:12:31;;;;;;;6.75;1.60;;;11.50;57.60;;;;;;4986694;28;20041;-66
2021/01/21 08:14:58;;;;;;;5.22;1.50;;;11.50;57.60;;;;;;4992095;28;20480;-66
2021/01/21 08:17:23;;;;;;;4.78;1.52;;;11.50;57.60;;;;;;4989282;28;20057;-66
2021/01/21 08:19:49;;;;;;;8.25;1.35;;;11.50;57.60;;;;;;4987910;28;20117;-66
2021/01/21 08:22:14;;;;;;;6.35;1.38;;;11.50;57.60;;;;;;4988530;28;20380;-66
2021/01/21 08:24:59;;;;;;;9.13;1.33;;;11.60;57.60;;;;;;4985822;28;20038;-66
2021/01/21 08:27:44;;;;;;;5.15;1.30;;;11.60;57.60;;;;;;4990508;28;20052;-66
2021/01/21 08:30:19;;;;;;;5.95;1.25;;;11.60;57.50;;;;;;4989236;28;20073;-66
2021/01/21 08:32:50;;;;;;;12.20;1.52;;;11.60;57.20;;;;;;4985786;28;20053;-66
2021/01/21 08:35:19;;;;;;;8.63;1.50;;;11.60;57.00;;;;;;4982941;28;20034;-66
2021/01/21 08:37:45;;;;;;;8.05;1.23;;;11.50;56.80;;;;;;4988619;28;20042;-66
2021/01/21 08:40:12;;;;;;;8.10;1.95;;;11.50;56.70;;;;;;4987091;28;20052;-66
2021/01/21 08:42:38;;;;;;;7.50;1.40;;;11.40;56.60;;;;;;4975335;28;20398;-66
2021/01/21 08:45:05;;;;;;;4.65;1.45;;;11.40;56.50;;;;;;4989761;28;20049;-66
2021/01/21 08:48:00;;;;;;;6.70;1.63;;;11.40;56.50;;;;;;4995862;28;24566;-66
2021/01/21 08:50:40;;;;;;;7.38;1.60;;;11.30;56.50;;;;;;4986138;28;20038;-66
2021/01/21 08:53:10;;;;;;;9.70;1.25;;;11.30;56.50;;;;;;4987493;28;20037;-66
2021/01/21 08:55:43;;;;;;;4.88;1.60;;;11.30;56.70;;;;;;4990433;28;20058;-66
2021/01/21 08:58:12;;;;;;;3.95;1.17;;;11.30;56.80;;;;;;4992839;28;20045;-66
2021/01/21 09:00:39;;;;;;;7.75;1.50;;;11.40;56.90;;;;;;4988850;28;20078;-66
2021/01/21 09:03:05;;;;;;;7.22;1.85;;;11.60;57.00;;;;;;4983359;28;20125;-67
2021/01/21 09:05:32;;;;;;;6.70;1.38;;;11.70;56.70;;;;;;4979777;28;20487;-67
2021/01/21 09:08:06;;;;;;;6.65;1.27;;;11.90;56.60;;;;;;4988040;28;20116;-71
2021/01/21 09:10:41;;;;;;;4.07;1.77;;;11.90;56.00;;;;;;4986669;28;20595;-67
2021/01/21 09:13:07;;;;;;;7.40;1.50;;;12.00;55.60;;;;;;4981742;28;20040;-67
2021/01/21 09:15:55;;;;;;;7.97;1.30;;;12.00;55.20;;;;;;4980173;28;20046;-67
2021/01/21 09:18:23;;;;;;;5.72;1.40;;;12.00;54.80;;;;;;4978894;28;20101;-67
2021/01/21 09:20:49;;;;;;;3.83;1.20;;;12.00;54.60;;;;;;4986965;28;20033;-67
2021/01/21 09:23:21;;;;;;;4.95;1.50;;;11.90;54.50;;;;;;4977220;28;20650;-67
2021/01/21 09:25:48;;;;;;;9.80;1.73;;;11.90;54.40;;;;;;4983662;28;20136;-67
2021/01/21 09:28:14;;;;;;;4.65;0.90;;;11.90;54.20;;;;;;4989182;28;20060;-67
2021/01/21 09:30:41;;;;;;;6.63;1.30;;;11.90;54.00;;;;;;4990431;28;20045;-67
2021/01/21 09:33:07;;;;;;;6.07;1.45;;;11.90;53.60;;;;;;4985640;28;20045;-67
2021/01/21 09:35:33;;;;;;;6.03;1.73;;;11.80;53.40;;;;;;4989166;28;20042;-67
2021/01/21 09:38:00;;;;;;;4.55;1.33;;;11.80;53.10;;;;;;4989846;28;20038;-67
2021/01/21 09:40:34;;;;;;;5.93;1.27;;;11.80;53.10;;;;;;4988367;28;20045;-67
2021/01/21 09:43:04;;;;;;;6.70;1.25;;;11.80;53.00;;;;;;4984548;28;20092;-67
2021/01/21 09:45:31;;;;;;;6.00;1.40;;;11.90;53.00;;;;;;4990735;28;20662;-67
2021/01/21 09:47:58;;;;;;;6.97;1.88;;;11.90;52.80;;;;;;4988008;28;20046;-67
2021/01/21 09:50:24;;;;;;;8.35;1.20;;;11.90;52.50;;;;;;4992596;28;20042;-67
2021/01/21 09:52:51;;;;;;;3.03;1.20;;;11.90;52.20;;;;;;4987274;28;20279;-67
2021/01/21 09:55:17;;;;;;;5.68;1.05;;;12.00;52.40;;;;;;4990553;28;20050;-67
2021/01/21 09:57:43;;;;;;;5.65;1.23;;;12.10;52.50;;;;;;4988343;28;20046;-67
2021/01/21 10:00:11;;;;;;;6.55;1.42;;;12.20;52.50;;;;;;4989215;28;20423;-67
2021/01/21 10:02:36;;;;;;;6.85;1.23;;;12.20;52.40;;;;;;4980877;28;20038;-67
2021/01/21 10:05:06;;;;;;;5.63;1.73;;;12.30;52.10;;;;;;4986942;28;20044;-68
2021/01/21 10:07:31;;;;;;;10.60;1.95;;;12.40;52.00;;;;;;4985942;28;20064;-67
2021/01/21 10:09:57;;;;;;;7.45;1.63;;;12.40;51.80;;;;;;4992597;28;20392;-67
2021/01/21 10:12:23;;;;;;;7.10;1.42;;;12.40;51.80;;;;;;4990884;28;20042;-67
2021/01/21 10:14:48;;;;;;;6.93;1.95;;;12.50;52.30;;;;;;4992218;28;20045;-67
2021/01/21 10:17:14;;;;;;;9.85;1.45;;;12.80;52.10;;;;;;4991438;28;20145;-67
2021/01/21 10:19:40;;;;;;;5.75;1.17;;;13.10;51.40;;;;;;4990114;28;20049;-67
2021/01/21 10:22:06;;;;;;;3.65;1.30;;;13.40;51.20;;;;;;4989319;28;20044;-68
2021/01/21 10:24:32;;;;;;;5.63;1.45;;;13.80;50.30;;;;;;4991448;28;20054;-67
2021/01/21 10:26:58;;;;;;;4.60;1.30;;;14.40;50.30;;;;;;4993158;28;21512;-67
2021/01/21 10:29:23;;;;;;;8.88;1.77;;;14.90;47.90;;;;;;4991764;28;20487;-67
2021/01/21 10:31:49;;;;;;;4.00;1.15;;;15.00;47.70;;;;;;4989504;28;20030;-67
2021/01/21 10:34:15;;;;;;;5.45;1.30;;;15.20;47.20;;;;;;4988897;28;20546;-67
2021/01/21 10:36:40;;;;;;;4.13;1.40;;;15.30;46.40;;;;;;4997176;28;20050;-67
2021/01/21 10:39:06;;;;;;;6.32;1.40;;;15.30;45.90;;;;;;4994829;28;20046;-67
2021/01/21 10:41:32;;;;;;;2.42;1.30;;;15.40;46.20;;;;;;4995126;28;20515;-67
2021/01/21 10:43:58;;;;;;;4.78;1.67;;;15.70;46.20;;;;;;4992980;28;20042;-67
2021/01/21 10:46:24;;;;;;;6.20;1.35;;;16.20;45.00;;;;;;4994321;28;20040;-67
2021/01/21 10:48:50;;;;;;;4.03;1.20;;;16.30;43.30;;;;;;4993411;28;20030;-67
2021/01/21 10:51:16;;;;;;;9.40;1.60;;;16.10;43.10;;;;;;4995193;28;20641;-68
2021/01/21 10:53:42;;;;;;;3.42;1.58;;;16.20;43.70;;;;;;4993417;28;20488;-68
2021/01/21 10:56:07;;;;;;;2.80;1.20;;;16.50;43.30;;;;;;4994892;28;20038;-68
2021/01/21 10:58:33;;;;;;;3.90;1.45;;;16.90;42.40;;;;;;4992611;28;20046;-67
2021/01/21 11:00:59;;;;;;;10.98;2.03;;;16.80;41.60;;;;;;4992502;28;20129;-69
2021/01/21 11:03:24;;;;;;;5.80;1.48;;;16.70;40.90;;;;;;4991197;28;20027;-67
2021/01/21 11:05:50;;;;;;;7.82;1.60;;;16.60;41.60;;;;;;4991871;28;20042;-68
2021/01/21 11:08:15;;;;;;;8.85;1.63;;;16.60;41.20;;;;;;4993174;28;20077;-67
2021/01/21 11:10:42;;;;;;;9.75;1.98;;;16.60;41.60;;;;;;4986905;28;20037;-67
2021/01/21 11:13:10;;;;;;;7.95;1.50;;;16.60;41.40;;;;;;4993058;28;20030;-68
2021/01/21 11:15:36;;;;;;;7.20;1.70;;;16.40;40.80;;;;;;4994613;28;20404;-68
2021/01/21 11:18:02;;;;;;;7.20;1.40;;;16.30;41.20;;;;;;4986134;28;20072;-66
2021/01/21 11:20:34;;;;;;;7.20;1.70;;;16.40;42.20;;;;;;4992126;28;20038;-67
2021/01/21 11:22:59;;;;;;;8.57;1.77;;;17.10;42.20;;;;;;4992959;28;20038;-63
2021/01/21 11:25:25;;;;;;;8.32;1.77;;;18.10;41.20;;;;;;4989255;28;20053;-64
2021/01/21 11:27:50;;;;;;;6.68;1.70;;;19.10;38.90;;;;;;4980083;28;20045;-64
2021/01/21 11:30:17;;;;;;;8.63;1.35;;;19.60;37.80;;;;;;4980684;28;20037;-68
2021/01/21 11:32:43;;;;;;;9.20;1.55;;;20.00;36.40;;;;;;4988265;28;20508;-65
2021/01/21 11:35:08;;;;;;;8.73;1.60;;;19.60;36.10;;;;;;4990104;28;20049;-61
2021/01/21 11:37:36;;;;;;;10.32;1.52;;;19.50;37.00;;;;;;4982457;28;20177;-60
2021/01/21 11:40:07;;;;;;;5.35;1.60;;;19.90;36.10;;;;;;4989968;28;20038;-63
2021/01/21 11:42:33;;;;;;;9.20;1.80;;;20.10;35.10;;;;;;4992082;28;20042;-63
2021/01/21 11:45:01;;;;;;;5.93;1.58;;;20.10;34.70;;;;;;4994108;28;20542;-63
2021/01/21 11:47:28;;;;;;;6.43;1.63;;;19.90;34.60;;;;;;4981743;28;20045;-63
2021/01/21 11:49:54;;;;;;;5.70;1.52;;;19.80;35.20;;;;;;4990196;28;20037;-67
2021/01/21 11:52:19;;;;;;;8.85;1.42;;;19.90;35.20;;;;;;4994118;28;20064;-61
2021/01/21 11:54:45;;;;;;;4.38;1.30;;;20.10;34.90;;;;;;4984650;28;20041;-61
2021/01/21 11:57:10;;;;;;;6.18;1.65;;;20.30;34.40;;;;;;4980236;28;20576;-60
2021/01/21 11:59:36;;;;;;;10.30;1.92;;;20.40;34.00;;;;;;4988848;28;20543;-61
2021/01/21 12:02:05;;;;;;;6.53;1.58;;;20.40;34.00;;;;;;4989005;28;20041;-61
2021/01/21 12:04:30;;;;;;;6.90;1.50;;;20.30;33.90;;;;;;4983535;28;20419;-60
2021/01/21 12:06:57;;;;;;;7.70;1.35;;;20.30;33.80;;;;;;4985000;28;20030;-61
2021/01/21 12:09:23;;;;;;;9.90;2.15;;;20.20;34.00;;;;;;4983936;28;21186;-60
2021/01/21 12:11:51;;;;;;;9.40;1.33;;;19.80;34.10;;;;;;4985769;28;20057;-60
2021/01/21 12:14:16;;;;;;;11.20;1.50;;;19.40;34.80;;;;;;4983056;28;20034;-60
2021/01/21 12:16:43;;;;;;;9.05;1.50;;;18.70;35.60;;;;;;4980638;28;20089;-60
2021/01/21 12:19:08;;;;;;;6.93;1.55;;;18.10;36.10;;;;;;4985005;28;20037;-60
2021/01/21 12:21:34;;;;;;;8.45;1.48;;;17.50;37.30;;;;;;4989539;28;20420;-60
2021/01/21 12:24:01;;;;;;;4.28;1.58;;;17.20;38.30;;;;;;4980989;28;20132;-60
2021/01/21 12:26:28;;;;;;;7.43;1.50;;;16.80;38.60;;;;;;4985086;28;20393;-60
2021/01/21 12:28:53;;;;;;;9.43;1.73;;;16.40;39.60;;;;;;4985061;28;20045;-60
2021/01/21 12:31:19;;;;;;;4.78;1.35;;;16.10;40.30;;;;;;4988347;28;20030;-60
2021/01/21 12:33:44;;;;;;;9.52;2.03;;;15.80;40.90;;;;;;4989558;28;20125;-60
2021/01/21 12:36:10;;;;;;;8.38;1.67;;;15.70;41.70;;;;;;4977924;28;20506;-60
2021/01/21 12:38:36;;;;;;;8.65;2.08;;;16.00;41.90;;;;;;4981824;28;20451;-60
2021/01/21 12:41:01;;;;;;;10.93;1.45;;;16.10;41.10;;;;;;4978804;28;20042;-60
2021/01/21 12:43:27;;;;;;;9.20;1.60;;;16.10;40.80;;;;;;4982980;28;20049;-60
2021/01/21 12:45:53;;;;;;;5.38;1.38;;;16.10;40.90;;;;;;4984760;28;20064;-60
2021/01/21 12:48:19;;;;;;;8.30;1.63;;;15.90;41.10;;;;;;4989015;28;20042;-60
2021/01/21 12:50:45;;;;;;;7.32;1.55;;;15.70;41.90;;;;;;4987327;28;20045;-60